Time;durP1;ratioP1;P1;durP2;ratioP2;P2;SDS_P1;SDS_P2;PMS_P1;PMS_P2;Temp;Humidity;BMP_temperature;BMP_pressure;BME280_temperature;BME280_humidity;BME280_pressure;Samples;Min_cycle;Max_cycle;Signal;HPM_P1;HPM_P2
2022/03/30 00:02:18;;;;;;;;;56.33;46.33;;;;;;;;4970408;28;28404;-88
2022/03/30 00:04:43;;;;;;;;;62.00;48.00;;;;;;;;4967354;28;28438;-88
2022/03/30 00:07:09;;;;;;;;;58.33;47.33;;;;;;;;4990142;28;28643;-88
2022/03/30 00:09:35;;;;;;;;;63.75;50.25;;;;;;;;4989924;28;29685;-88
2022/03/30 00:12:00;;;;;;;;;57.00;44.75;;;;;;;;4990034;28;28369;-88
2022/03/30 00:14:25;;;;;;;;;60.33;48.00;;;;;;;;4972254;28;28385;-88
2022/03/30 00:16:51;;;;;;;;;64.00;48.00;;;;;;;;4973239;28;28412;-89
2022/03/30 00:19:17;;;;;;;;;57.25;47.25;;;;;;;;4969804;28;28399;-88
2022/03/30 00:21:42;;;;;;;;;57.00;47.00;;;;;;;;4970168;28;28532;-88
2022/03/30 00:24:07;;;;;;;;;60.00;47.75;;;;;;;;4968574;28;28391;-87
2022/03/30 00:26:33;;;;;;;;;59.00;48.00;;;;;;;;4989705;28;27863;-87
2022/03/30 00:28:58;;;;;;;;;61.33;47.33;;;;;;;;4989741;28;28381;-87
2022/03/30 00:31:23;;;;;;;;;55.25;45.25;;;;;;;;4971990;28;28552;-87
2022/03/30 00:33:50;;;;;;;;;55.67;46.00;;;;;;;;4989648;28;28366;-87
2022/03/30 00:36:15;;;;;;;;;61.60;47.00;;;;;;;;4958945;28;28463;-88
2022/03/30 00:38:41;;;;;;;;;59.50;46.00;;;;;;;;4970180;28;28247;-88
2022/03/30 00:41:06;;;;;;;;;57.33;45.67;;;;;;;;4952705;28;28678;-88
2022/03/30 00:43:33;;;;;;;;;54.75;44.75;;;;;;;;4970130;28;28449;-87
2022/03/30 00:45:58;;;;;;;;;55.50;45.25;;;;;;;;4970033;28;28491;-87
2022/03/30 00:48:23;;;;;;;;;58.00;46.00;;;;;;;;4969540;28;28505;-89
2022/03/30 00:50:49;;;;;;;;;57.25;45.50;;;;;;;;4970237;28;28267;-88
2022/03/30 00:53:14;;;;;;;;;57.25;45.25;;;;;;;;4952343;28;28391;-88
2022/03/30 00:55:39;;;;;;;;;54.67;44.67;;;;;;;;4969621;28;28318;-88
2022/03/30 00:58:06;;;;;;;;;57.67;46.00;;;;;;;;4969503;28;28525;-88
2022/03/30 01:00:31;;;;;;;;;60.40;47.20;;;;;;;;4969383;28;28699;-91
2022/03/30 01:02:56;;;;;;;;;58.00;46.00;;;;;;;;4952629;28;28350;-90
2022/03/30 01:05:22;;;;;;;;;53.67;43.33;;;;;;;;4969775;28;28378;-88
2022/03/30 01:07:47;;;;;;;;;58.33;45.00;;;;;;;;4969054;28;28483;-88
2022/03/30 01:10:13;;;;;;;;;55.33;45.33;;;;;;;;4969393;28;28969;-88
2022/03/30 01:12:39;;;;;;;;;57.00;45.00;;;;;;;;4952211;28;28371;-89
2022/03/30 01:15:08;;;;;;;;;56.25;46.25;;;;;;;;4969793;28;28352;-90
2022/03/30 01:17:33;;;;;;;;;56.75;45.75;;;;;;;;4951870;28;30871;-88
2022/03/30 01:19:59;;;;;;;;;53.33;42.33;;;;;;;;4951390;28;28315;-88
2022/03/30 01:22:24;;;;;;;;;55.67;44.67;;;;;;;;4969347;28;28502;-89
2022/03/30 01:24:49;;;;;;;;;56.50;45.50;;;;;;;;4952038;28;28844;-89
2022/03/30 01:27:15;;;;;;;;;53.00;44.00;;;;;;;;4969804;28;28486;-89
2022/03/30 01:32:29;;;;;;;;;56.60;43.00;;;;;;;;4968931;28;28532;-89
2022/03/30 01:34:54;;;;;;;;;52.00;43.20;;;;;;;;4951357;28;28440;-87
2022/03/30 01:37:19;;;;;;;;;56.00;44.00;;;;;;;;4969226;28;28369;-89
2022/03/30 01:39:45;;;;;;;;;52.75;43.00;;;;;;;;4969278;28;28303;-88
2022/03/30 01:42:11;;;;;;;;;53.20;44.60;;;;;;;;4969432;28;28268;-88
2022/03/30 01:44:37;;;;;;;;;54.50;44.00;;;;;;;;4951992;28;28335;-89
2022/03/30 01:47:02;;;;;;;;;55.25;44.00;;;;;;;;4969034;28;29622;-88
2022/03/30 01:49:28;;;;;;;;;55.00;43.33;;;;;;;;4951321;28;28422;-88
2022/03/30 01:51:54;;;;;;;;;54.50;44.00;;;;;;;;4951915;28;28397;-89
2022/03/30 01:54:20;;;;;;;;;55.00;44.00;;;;;;;;4969160;28;28284;-89
2022/03/30 01:56:46;;;;;;;;;55.20;44.40;;;;;;;;4969045;28;28411;-88
2022/03/30 01:59:11;;;;;;;;;54.00;43.00;;;;;;;;4968419;28;27894;-88
2022/03/30 02:01:37;;;;;;;;;57.00;45.33;;;;;;;;4968946;28;28359;-87
2022/03/30 02:04:03;;;;;;;;;59.00;46.00;;;;;;;;4969409;28;28391;-89
2022/03/30 02:06:28;;;;;;;;;57.00;45.00;;;;;;;;4968543;28;28850;-88
2022/03/30 02:08:53;;;;;;;;;52.50;43.50;;;;;;;;4969027;28;28419;-89
2022/03/30 02:11:18;;;;;;;;;51.00;43.67;;;;;;;;4969113;28;28400;-89
2022/03/30 02:13:44;;;;;;;;;54.50;45.25;;;;;;;;4968904;28;28365;-88
2022/03/30 02:16:09;;;;;;;;;57.00;46.00;;;;;;;;4968827;28;29730;-88
2022/03/30 02:18:35;;;;;;;;;54.67;45.67;;;;;;;;4969008;28;28658;-88
2022/03/30 02:21:00;;;;;;;;;51.75;44.00;;;;;;;;4945568;28;28332;-89
2022/03/30 02:23:26;;;;;;;;;54.00;44.00;;;;;;;;4949555;28;28350;-89
2022/03/30 02:25:51;;;;;;;;;59.50;46.00;;;;;;;;4949273;28;29194;-88
2022/03/30 02:28:16;;;;;;;;;58.00;47.33;;;;;;;;4949438;28;28298;-89
2022/03/30 02:30:41;;;;;;;;;55.00;44.67;;;;;;;;4949578;28;28444;-90
2022/03/30 02:33:06;;;;;;;;;55.33;43.33;;;;;;;;4949203;28;28032;-89
2022/03/30 02:35:32;;;;;;;;;57.00;44.50;;;;;;;;4949285;28;28415;-88
2022/03/30 02:37:58;;;;;;;;;57.67;45.00;;;;;;;;4949267;28;28381;-88
2022/03/30 02:40:23;;;;;;;;;56.80;43.80;;;;;;;;4949277;28;28508;-89
2022/03/30 02:42:49;;;;;;;;;55.67;45.00;;;;;;;;4948964;28;28406;-90
2022/03/30 02:45:16;;;;;;;;;54.75;44.00;;;;;;;;4931724;28;28843;-90
2022/03/30 02:50:25;;;;;;;;;54.25;43.75;;;;;;;;4952515;28;28386;-89
2022/03/30 02:52:51;;;;;;;;;51.50;43.25;;;;;;;;4952516;28;28761;-88
2022/03/30 02:55:16;;;;;;;;;51.50;43.50;;;;;;;;4952156;28;29668;-88
2022/03/30 02:57:41;;;;;;;;;56.00;44.00;;;;;;;;4951977;28;28414;-89
2022/03/30 03:00:07;;;;;;;;;56.75;43.50;;;;;;;;4952224;28;28406;-89
2022/03/30 03:02:33;;;;;;;;;51.25;43.00;;;;;;;;4952227;28;28401;-89
2022/03/30 03:04:58;;;;;;;;;57.00;45.33;;;;;;;;4951993;28;28689;-88
2022/03/30 03:07:23;;;;;;;;;54.75;42.25;;;;;;;;4952113;28;28470;-88
2022/03/30 03:09:49;;;;;;;;;53.67;43.67;;;;;;;;4952338;28;28329;-88
2022/03/30 03:12:14;;;;;;;;;56.75;44.25;;;;;;;;4934470;28;28462;-89
2022/03/30 03:14:39;;;;;;;;;51.75;43.00;;;;;;;;4952111;28;29210;-89
2022/03/30 03:17:04;;;;;;;;;52.67;42.67;;;;;;;;4951846;28;28545;-88
2022/03/30 03:19:29;;;;;;;;;51.67;43.00;;;;;;;;4952091;28;29189;-89
2022/03/30 03:21:55;;;;;;;;;52.50;43.00;;;;;;;;4964245;28;28371;-88
2022/03/30 03:24:20;;;;;;;;;51.25;43.00;;;;;;;;4971186;28;29151;-88
2022/03/30 03:26:45;;;;;;;;;54.67;45.00;;;;;;;;4952617;28;28770;-88
2022/03/30 03:29:10;;;;;;;;;57.33;46.00;;;;;;;;4971195;28;28306;-89
2022/03/30 03:31:36;;;;;;;;;55.00;44.00;;;;;;;;4971455;28;28373;-88
2022/03/30 03:34:01;;;;;;;;;55.25;44.00;;;;;;;;4967560;28;28481;-89
2022/03/30 03:36:26;;;;;;;;;55.50;45.75;;;;;;;;4971212;28;28385;-90
2022/03/30 03:38:52;;;;;;;;;55.75;43.50;;;;;;;;4971520;28;28435;-91
2022/03/30 03:41:18;;;;;;;;;52.75;42.50;;;;;;;;4953823;28;28324;-88
2022/03/30 03:43:44;;;;;;;;;54.60;43.20;;;;;;;;4970955;28;28346;-90
2022/03/30 03:46:09;;;;;;;;;51.33;41.67;;;;;;;;4970419;28;28263;-88
2022/03/30 03:48:34;;;;;;;;;55.00;44.00;;;;;;;;4970827;28;28447;-89
2022/03/30 03:50:59;;;;;;;;;55.50;44.00;;;;;;;;4971109;28;28473;-88
2022/03/30 03:53:25;;;;;;;;;53.67;43.67;;;;;;;;4970687;28;28461;-88
2022/03/30 03:55:50;;;;;;;;;61.00;46.00;;;;;;;;4970899;28;28579;-90
2022/03/30 03:58:15;;;;;;;;;55.25;43.50;;;;;;;;4970656;28;28483;-88
2022/03/30 04:00:41;;;;;;;;;54.25;44.00;;;;;;;;4959818;28;28619;-88
2022/03/30 04:03:06;;;;;;;;;57.00;46.00;;;;;;;;4951627;28;29327;-89
2022/03/30 04:05:32;;;;;;;;;57.75;44.75;;;;;;;;4951197;28;28461;-90
2022/03/30 04:07:58;;;;;;;;;57.00;46.00;;;;;;;;4951479;28;28526;-89
2022/03/30 04:10:23;;;;;;;;;56.00;45.50;;;;;;;;4951428;28;28397;-89
2022/03/30 04:12:48;;;;;;;;;54.33;44.67;;;;;;;;4951105;28;28375;-89
2022/03/30 04:15:14;;;;;;;;;58.75;46.25;;;;;;;;4951128;28;28394;-89
2022/03/30 04:17:43;;;;;;;;;53.25;44.25;;;;;;;;4950652;28;28314;-89
2022/03/30 04:20:08;;;;;;;;;54.00;44.00;;;;;;;;4933603;28;28288;-87
2022/03/30 04:22:34;;;;;;;;;57.33;45.67;;;;;;;;4950826;28;30131;-89
2022/03/30 04:24:59;;;;;;;;;54.75;43.00;;;;;;;;4969891;28;28631;-89
2022/03/30 04:27:24;;;;;;;;;55.00;45.00;;;;;;;;4953178;28;29197;-89
2022/03/30 04:29:49;;;;;;;;;58.75;44.75;;;;;;;;4970192;28;28377;-89
2022/03/30 04:32:15;;;;;;;;;57.00;44.67;;;;;;;;4952981;28;28842;-88
2022/03/30 04:34:40;;;;;;;;;57.25;44.75;;;;;;;;4970053;28;28347;-89
2022/03/30 04:37:05;;;;;;;;;56.67;45.67;;;;;;;;4968861;28;28806;-88
2022/03/30 04:39:30;;;;;;;;;56.50;46.00;;;;;;;;4970164;28;28653;-86
2022/03/30 04:41:56;;;;;;;;;57.67;46.00;;;;;;;;4969733;28;28472;-86
2022/03/30 04:44:21;;;;;;;;;52.33;43.00;;;;;;;;4970209;28;28371;-84
2022/03/30 04:46:46;;;;;;;;;56.25;43.50;;;;;;;;4970137;28;28405;-85
2022/03/30 04:49:12;;;;;;;;;55.33;45.00;;;;;;;;4952142;28;28394;-84
2022/03/30 04:51:37;;;;;;;;;51.33;41.33;;;;;;;;4969490;28;28517;-84
2022/03/30 04:54:03;;;;;;;;;60.00;48.00;;;;;;;;4969047;28;28617;-83
2022/03/30 04:56:28;;;;;;;;;55.20;44.20;;;;;;;;4970175;28;28436;-87
2022/03/30 04:58:53;;;;;;;;;56.25;45.00;;;;;;;;4970122;28;28488;-89
2022/03/30 05:01:19;;;;;;;;;53.75;42.75;;;;;;;;4970306;28;29280;-93
2022/03/30 05:03:44;;;;;;;;;53.67;44.33;;;;;;;;4956039;28;28694;-88
2022/03/30 05:06:09;;;;;;;;;55.75;43.75;;;;;;;;4971433;28;28368;-89
2022/03/30 05:08:34;;;;;;;;;55.25;45.00;;;;;;;;4970793;28;27771;-88
2022/03/30 05:11:00;;;;;;;;;56.33;45.67;;;;;;;;4971534;28;28389;-93
2022/03/30 05:13:25;;;;;;;;;59.67;46.67;;;;;;;;4953977;28;28455;-92
2022/03/30 05:15:51;;;;;;;;;57.67;45.67;;;;;;;;4941156;28;28314;-89
2022/03/30 05:18:16;;;;;;;;;58.00;45.75;;;;;;;;4970359;28;28404;-93
2022/03/30 05:20:42;;;;;;;;;56.00;45.67;;;;;;;;4953483;28;30015;-87
2022/03/30 05:23:07;;;;;;;;;56.50;45.25;;;;;;;;4971566;28;28668;-91
2022/03/30 05:25:33;;;;;;;;;56.67;44.00;;;;;;;;4952538;28;28298;-88
2022/03/30 05:27:58;;;;;;;;;53.50;44.25;;;;;;;;4969471;28;28631;-89
2022/03/30 05:30:23;;;;;;;;;55.67;45.00;;;;;;;;4968869;28;28714;-88
2022/03/30 05:32:49;;;;;;;;;59.00;45.75;;;;;;;;4952312;28;28383;-88
2022/03/30 05:35:14;;;;;;;;;58.67;43.33;;;;;;;;4969500;28;28490;-90
2022/03/30 05:37:39;;;;;;;;;53.25;43.75;;;;;;;;4952411;28;28435;-88
2022/03/30 05:40:05;;;;;;;;;52.25;43.00;;;;;;;;4969348;28;28844;-88
2022/03/30 05:42:31;;;;;;;;;56.50;44.00;;;;;;;;4951734;28;28472;-90
2022/03/30 05:44:56;;;;;;;;;56.33;44.33;;;;;;;;4969495;28;28414;-89
2022/03/30 05:47:21;;;;;;;;;54.67;46.00;;;;;;;;4951689;28;28490;-89
2022/03/30 05:49:46;;;;;;;;;52.75;42.75;;;;;;;;4952874;28;28583;-93
2022/03/30 05:52:12;;;;;;;;;52.50;43.50;;;;;;;;4953324;28;28601;-92
2022/03/30 05:54:37;;;;;;;;;55.33;44.67;;;;;;;;4952990;28;28498;-92
2022/03/30 05:57:03;;;;;;;;;51.33;43.33;;;;;;;;4953130;28;28371;-92
2022/03/30 05:59:39;;;;;;;;;58.25;44.75;;;;;;;;4953397;28;28482;-92
2022/03/30 06:02:05;;;;;;;;;55.75;43.00;;;;;;;;4953093;28;28679;-92
2022/03/30 06:04:31;;;;;;;;;59.25;45.50;;;;;;;;4952924;28;27776;-92
2022/03/30 06:06:56;;;;;;;;;58.75;45.25;;;;;;;;4953202;28;27912;-92
2022/03/30 06:09:21;;;;;;;;;53.00;44.00;;;;;;;;4953090;28;30008;-93
2022/03/30 06:11:47;;;;;;;;;52.75;44.50;;;;;;;;4952863;28;28484;-92
2022/03/30 06:14:14;;;;;;;;;52.00;42.00;;;;;;;;4953175;28;28492;-92
2022/03/30 06:16:40;;;;;;;;;53.50;44.25;;;;;;;;4953086;28;27987;-92
2022/03/30 06:19:05;;;;;;;;;52.25;42.25;;;;;;;;4952683;28;30665;-93
2022/03/30 06:21:30;;;;;;;;;54.00;42.75;;;;;;;;4945083;28;29319;-91
2022/03/30 06:23:56;;;;;;;;;55.00;45.00;;;;;;;;4937113;28;28442;-93
2022/03/30 06:26:22;;;;;;;;;56.40;43.80;;;;;;;;4937204;28;28360;-95
2022/03/30 06:28:47;;;;;;;;;56.25;44.00;;;;;;;;4937402;28;30080;-91
2022/03/30 06:31:17;;;;;;;;;63.25;49.00;;;;;;;;4936939;28;29735;-91
2022/03/30 06:33:43;;;;;;;;;54.50;43.25;;;;;;;;4936988;28;28348;-92
2022/03/30 06:36:08;;;;;;;;;52.40;43.60;;;;;;;;4937348;28;28863;-93
2022/03/30 06:38:33;;;;;;;;;56.67;45.33;;;;;;;;4941095;28;29765;-92
2022/03/30 06:40:58;;;;;;;;;53.67;44.67;;;;;;;;4936551;28;29054;-91
2022/03/30 06:43:24;;;;;;;;;52.67;41.67;;;;;;;;4935999;28;28579;-91
2022/03/30 06:45:50;;;;;;;;;55.00;44.33;;;;;;;;4936778;28;28693;-93
2022/03/30 06:48:15;;;;;;;;;56.60;45.60;;;;;;;;4953728;28;28526;-92
2022/03/30 06:50:40;;;;;;;;;54.00;43.25;;;;;;;;4937101;28;29728;-92
2022/03/30 06:53:07;;;;;;;;;52.33;43.00;;;;;;;;4939188;28;28502;-95
2022/03/30 06:55:32;;;;;;;;;52.40;42.80;;;;;;;;4939288;28;28414;-94
2022/03/30 06:57:57;;;;;;;;;58.00;45.33;;;;;;;;4939601;28;29918;-95
2022/03/30 07:00:23;;;;;;;;;55.00;42.00;;;;;;;;4940112;28;28553;-94
2022/03/30 07:02:48;;;;;;;;;53.75;43.25;;;;;;;;4939471;28;28412;-92
2022/03/30 07:05:13;;;;;;;;;50.25;41.00;;;;;;;;4938766;28;28041;-93
2022/03/30 07:10:23;;;;;;;;;51.00;40.00;;;;;;;;4955004;28;28343;-92
2022/03/30 07:12:50;;;;;;;;;51.50;42.75;;;;;;;;4938272;28;28462;-93
2022/03/30 07:15:16;;;;;;;;;50.75;40.50;;;;;;;;4937881;28;28288;-94
2022/03/30 07:17:44;;;;;;;;;55.75;44.25;;;;;;;;4938168;28;29778;-94
2022/03/30 07:20:13;;;;;;;;;53.80;41.60;;;;;;;;4937592;28;29359;-94
2022/03/30 07:22:38;;;;;;;;;52.00;43.00;;;;;;;;4956226;28;28374;-94
2022/03/30 07:25:04;;;;;;;;;50.33;41.67;;;;;;;;4957420;28;28639;-95
2022/03/30 07:27:30;;;;;;;;;51.00;42.00;;;;;;;;4958494;28;29671;-95
2022/03/30 07:29:55;;;;;;;;;55.00;44.00;;;;;;;;4958398;28;28377;-94
2022/03/30 07:32:23;;;;;;;;;50.33;41.33;;;;;;;;4953880;28;28358;-92
2022/03/30 07:34:49;;;;;;;;;50.00;40.20;;;;;;;;4937900;28;28597;-93
2022/03/30 07:37:14;;;;;;;;;49.00;40.50;;;;;;;;4938425;28;29869;-93
2022/03/30 07:39:39;;;;;;;;;49.75;40.00;;;;;;;;4937883;28;28426;-94
2022/03/30 07:42:04;;;;;;;;;50.00;41.00;;;;;;;;4953731;28;27904;-92
2022/03/30 07:44:31;;;;;;;;;45.75;37.50;;;;;;;;4956832;28;28489;-93
2022/03/30 07:46:58;;;;;;;;;52.00;43.00;;;;;;;;4957441;28;29965;-94
2022/03/30 07:49:24;;;;;;;;;54.25;40.00;;;;;;;;4957584;28;28776;-92
2022/03/30 07:51:49;;;;;;;;;47.00;39.25;;;;;;;;4957820;28;28793;-92
2022/03/30 07:54:14;;;;;;;;;48.00;40.25;;;;;;;;4957424;28;28313;-93
2022/03/30 07:56:39;;;;;;;;;50.00;43.00;;;;;;;;4957283;28;29694;-94
2022/03/30 07:59:05;;;;;;;;;48.75;39.25;;;;;;;;4957750;28;28477;-95
2022/03/30 08:01:30;;;;;;;;;48.75;38.75;;;;;;;;4957751;28;28346;-93
2022/03/30 08:03:56;;;;;;;;;45.25;38.00;;;;;;;;4957557;28;28320;-93
2022/03/30 08:06:22;;;;;;;;;47.60;39.20;;;;;;;;4957792;28;29943;-94
2022/03/30 08:08:47;;;;;;;;;50.50;41.75;;;;;;;;4958209;28;28725;-94
2022/03/30 08:11:13;;;;;;;;;47.33;40.33;;;;;;;;4957971;28;27800;-94
2022/03/30 08:13:39;;;;;;;;;49.50;41.00;;;;;;;;4958177;28;28316;-94
2022/03/30 08:16:04;;;;;;;;;51.50;41.00;;;;;;;;4957878;28;29703;-95
2022/03/30 08:18:29;;;;;;;;;47.25;38.25;;;;;;;;4958242;28;29149;-95
2022/03/30 08:23:39;;;;;;;;;47.80;40.00;;;;;;;;4995295;28;28298;-94
2022/03/30 08:26:04;;;;;;;;;46.67;39.33;;;;;;;;4977986;28;30734;-96
2022/03/30 08:28:30;;;;;;;;;46.80;39.40;;;;;;;;4978008;28;28611;-94
2022/03/30 08:30:56;;;;;;;;;47.50;39.50;;;;;;;;4967919;28;27906;-94
2022/03/30 08:33:26;;;;;;;;;45.60;36.00;;;;;;;;4958430;28;28411;-94
2022/03/30 08:35:55;;;;;;;;;44.00;38.00;;;;;;;;4975314;28;28430;-95
2022/03/30 08:38:20;;;;;;;;;48.25;39.50;;;;;;;;4958805;28;29035;-95
2022/03/30 08:40:46;;;;;;;;;49.50;39.00;;;;;;;;4958590;28;28343;-94
2022/03/30 08:43:11;;;;;;;;;51.75;42.00;;;;;;;;4958141;28;28421;-96
2022/03/30 08:45:36;;;;;;;;;49.50;38.25;;;;;;;;4957795;28;29941;-93
2022/03/30 08:48:02;;;;;;;;;46.75;39.00;;;;;;;;4958512;28;28992;-95
2022/03/30 08:50:28;;;;;;;;;46.50;39.00;;;;;;;;4957930;28;28390;-94
2022/03/30 08:52:55;;;;;;;;;49.25;39.25;;;;;;;;4957417;28;27854;-94
2022/03/30 08:55:21;;;;;;;;;48.00;40.20;;;;;;;;4957413;28;29895;-95
2022/03/30 08:57:46;;;;;;;;;45.75;38.00;;;;;;;;4957766;28;28936;-96
2022/03/30 09:00:16;;;;;;;;;49.00;42.00;;;;;;;;4957063;28;28403;-93
2022/03/30 09:02:43;;;;;;;;;55.25;41.75;;;;;;;;4956359;28;28994;-96
2022/03/30 09:05:19;;;;;;;;;49.00;38.75;;;;;;;;4956433;28;30653;-94
2022/03/30 09:07:48;;;;;;;;;50.25;41.25;;;;;;;;4955826;28;28842;-94
2022/03/30 09:10:14;;;;;;;;;48.00;37.60;;;;;;;;4955909;28;28375;-93
2022/03/30 09:12:40;;;;;;;;;49.00;40.75;;;;;;;;4955838;28;28409;-93
2022/03/30 09:15:06;;;;;;;;;49.25;38.25;;;;;;;;4954792;28;29887;-93
2022/03/30 09:17:38;;;;;;;;;47.00;39.00;;;;;;;;4954567;28;29081;-93
2022/03/30 09:20:04;;;;;;;;;42.00;37.00;;;;;;;;4954692;28;28467;-94
2022/03/30 09:22:31;;;;;;;;;45.60;38.60;;;;;;;;4947160;28;28521;-93
2022/03/30 09:24:56;;;;;;;;;48.80;39.40;;;;;;;;4933885;28;29816;-92
2022/03/30 09:27:23;;;;;;;;;43.25;36.75;;;;;;;;4934817;28;29220;-93
2022/03/30 09:29:49;;;;;;;;;47.20;37.80;;;;;;;;4935467;28;27791;-93
2022/03/30 09:32:14;;;;;;;;;40.25;34.00;;;;;;;;4934647;28;28442;-94
2022/03/30 09:34:48;;;;;;;;;47.00;39.00;;;;;;;;4934689;28;29619;-94
2022/03/30 09:37:13;;;;;;;;;46.00;38.00;;;;;;;;4951876;28;28353;-92
2022/03/30 09:39:40;;;;;;;;;43.75;36.00;;;;;;;;4933397;28;27863;-91
2022/03/30 09:42:07;;;;;;;;;44.50;37.00;;;;;;;;4933261;28;28477;-92
2022/03/30 09:44:44;;;;;;;;;42.00;37.00;;;;;;;;4933523;28;30120;-92
2022/03/30 09:47:09;;;;;;;;;39.80;34.60;;;;;;;;4950736;28;28470;-92
2022/03/30 09:49:41;;;;;;;;;39.33;33.00;;;;;;;;4951317;28;28875;-93
2022/03/30 09:52:10;;;;;;;;;37.25;34.25;;;;;;;;4933447;28;28482;-92
2022/03/30 09:54:43;;;;;;;;;40.25;31.75;;;;;;;;4933145;28;31059;-92
2022/03/30 09:57:10;;;;;;;;;38.00;33.40;;;;;;;;4936876;28;29049;-93
2022/03/30 10:00:07;;;;;;;;;41.80;34.40;;;;;;;;4936689;28;29010;-93
2022/03/30 10:02:34;;;;;;;;;36.25;33.00;;;;;;;;4913682;29;28340;-93
2022/03/30 10:05:00;;;;;;;;;39.00;32.75;;;;;;;;4929183;28;28373;-91
2022/03/30 10:07:26;;;;;;;;;38.00;32.00;;;;;;;;4913183;28;28606;-92
2022/03/30 10:09:52;;;;;;;;;42.50;34.00;;;;;;;;4912608;28;28875;-92
2022/03/30 10:12:17;;;;;;;;;36.00;33.00;;;;;;;;4897144;28;28856;-93
2022/03/30 10:14:43;;;;;;;;;37.33;33.00;;;;;;;;4913449;29;28715;-92
2022/03/30 10:17:08;;;;;;;;;40.80;32.80;;;;;;;;4896756;29;28540;-92
2022/03/30 10:19:34;;;;;;;;;37.67;32.33;;;;;;;;4896132;29;27828;-92
2022/03/30 10:22:06;;;;;;;;;31.75;30.25;;;;;;;;4898020;29;29135;-92
2022/03/30 10:24:41;;;;;;;;;33.00;30.00;;;;;;;;4897525;29;30952;-93
2022/03/30 10:27:33;;;;;;;;;38.20;33.00;;;;;;;;4912735;29;28936;-92
2022/03/30 10:30:00;;;;;;;;;41.50;32.00;;;;;;;;4877740;29;27860;-92
2022/03/30 10:32:32;;;;;;;;;35.80;32.20;;;;;;;;4878432;29;27906;-93
2022/03/30 10:35:13;;;;;;;;;30.00;26.75;;;;;;;;4893857;29;28563;-90
2022/03/30 10:37:56;;;;;;;;;34.00;28.75;;;;;;;;4864840;29;29541;-91
2022/03/30 10:40:24;;;;;;;;;27.25;25.75;;;;;;;;4893244;29;28512;-92
2022/03/30 10:42:50;;;;;;;;;29.00;29.00;;;;;;;;4878020;29;27924;-88
2022/03/30 10:45:28;;;;;;;;;29.25;28.25;;;;;;;;4891586;29;28571;-88
2022/03/30 10:48:08;;;;;;;;;30.80;28.00;;;;;;;;4875300;29;28376;-87
2022/03/30 10:50:37;;;;;;;;;29.25;25.75;;;;;;;;4874444;29;27831;-88
2022/03/30 10:53:02;;;;;;;;;26.20;22.60;;;;;;;;4896848;29;28419;-92
2022/03/30 10:55:30;;;;;;;;;28.67;25.33;;;;;;;;4873338;29;29616;-89
2022/03/30 10:58:01;;;;;;;;;29.60;26.80;;;;;;;;4888448;29;28553;-87
2022/03/30 11:00:29;;;;;;;;;28.00;27.00;;;;;;;;4893047;29;28569;-86
2022/03/30 11:03:14;;;;;;;;;26.00;26.00;;;;;;;;4887141;29;28638;-92
2022/03/30 11:05:43;;;;;;;;;29.75;28.25;;;;;;;;4880021;28;30129;-89
2022/03/30 11:08:48;;;;;;;;;28.50;26.75;;;;;;;;4951535;28;28805;-88
2022/03/30 11:11:20;;;;;;;;;33.00;29.50;;;;;;;;4911227;29;28590;-89
2022/03/30 11:13:45;;;;;;;;;30.40;28.60;;;;;;;;4908943;29;27803;-93
2022/03/30 11:16:11;;;;;;;;;28.00;26.67;;;;;;;;4897922;29;29695;-96
2022/03/30 11:18:52;;;;;;;;;27.00;24.75;;;;;;;;4897589;29;28484;-87
2022/03/30 11:21:18;;;;;;;;;29.50;27.25;;;;;;;;4904681;28;28956;-87
2022/03/30 11:23:52;;;;;;;;;31.60;30.60;;;;;;;;4910544;29;28600;-87
2022/03/30 11:26:17;;;;;;;;;28.40;28.40;;;;;;;;4911476;28;29091;-90
2022/03/30 11:28:43;;;;;;;;;31.75;30.00;;;;;;;;4906780;29;28845;-85
2022/03/30 11:31:21;;;;;;;;;27.33;25.00;;;;;;;;4898128;29;27906;-88
2022/03/30 11:34:06;;;;;;;;;33.25;30.00;;;;;;;;4910736;29;28569;-88
2022/03/30 11:36:31;;;;;;;;;27.60;25.80;;;;;;;;4910532;29;28534;-88
2022/03/30 11:38:59;;;;;;;;;28.00;27.00;;;;;;;;4910768;29;28506;-87
2022/03/30 11:41:25;;;;;;;;;36.80;32.60;;;;;;;;4921037;28;28440;-87
2022/03/30 11:46:38;;;;;;;;;34.75;28.50;;;;;;;;4950682;28;28791;-87
2022/03/30 11:49:04;;;;;;;;;38.25;32.00;;;;;;;;4925007;28;29404;-85
2022/03/30 11:51:29;;;;;;;;;30.75;29.75;;;;;;;;4945420;28;28812;-83
2022/03/30 11:54:14;;;;;;;;;30.50;29.25;;;;;;;;4953818;28;28477;-88
2022/03/30 11:56:40;;;;;;;;;32.00;29.00;;;;;;;;4950136;28;28590;-86
2022/03/30 11:59:06;;;;;;;;;33.40;28.80;;;;;;;;4950538;28;28489;-87
2022/03/30 12:01:33;;;;;;;;;30.50;28.00;;;;;;;;4950750;28;28903;-87
2022/03/30 12:03:58;;;;;;;;;29.25;27.25;;;;;;;;4951446;28;28421;-87
2022/03/30 12:06:24;;;;;;;;;26.50;24.75;;;;;;;;4962488;28;28420;-87
2022/03/30 12:08:49;;;;;;;;;26.67;26.33;;;;;;;;4950730;28;28414;-88
2022/03/30 12:11:35;;;;;;;;;33.75;31.75;;;;;;;;4950659;28;28543;-87
2022/03/30 12:14:02;;;;;;;;;34.20;30.60;;;;;;;;4946737;28;28497;-88
2022/03/30 12:16:34;;;;;;;;;33.40;31.60;;;;;;;;4949826;28;28589;-88
2022/03/30 12:19:00;;;;;;;;;33.40;28.00;;;;;;;;4960504;28;28519;-87
2022/03/30 12:21:27;;;;;;;;;36.50;31.25;;;;;;;;4955270;28;28553;-87
2022/03/30 12:24:06;;;;;;;;;31.50;29.75;;;;;;;;4933163;28;28724;-88
2022/03/30 12:26:34;;;;;;;;;32.25;29.75;;;;;;;;4965013;28;28788;-87
2022/03/30 12:29:10;;;;;;;;;37.40;33.80;;;;;;;;4970996;28;28525;-88
2022/03/30 12:31:47;;;;;;;;;41.50;34.50;;;;;;;;4951028;28;28588;-88
2022/03/30 12:34:20;;;;;;;;;38.67;33.00;;;;;;;;4969234;28;28402;-88
2022/03/30 12:36:50;;;;;;;;;36.25;32.00;;;;;;;;4951771;28;29028;-86
2022/03/30 12:39:17;;;;;;;;;35.50;32.25;;;;;;;;4969105;28;28522;-86
2022/03/30 12:41:43;;;;;;;;;28.20;24.80;;;;;;;;4951917;28;28421;-86
2022/03/30 12:44:09;;;;;;;;;31.00;29.00;;;;;;;;4962594;28;28434;-86
2022/03/30 12:46:35;;;;;;;;;30.80;28.20;;;;;;;;4950944;28;28684;-86
2022/03/30 12:49:04;;;;;;;;;30.00;27.75;;;;;;;;4969201;28;28536;-86
2022/03/30 12:51:33;;;;;;;;;31.60;29.00;;;;;;;;4969240;28;28475;-86
2022/03/30 12:53:58;;;;;;;;;31.50;26.00;;;;;;;;4951344;28;28564;-86
2022/03/30 12:56:24;;;;;;;;;30.00;27.33;;;;;;;;4969178;28;28415;-87
2022/03/30 12:58:50;;;;;;;;;29.00;28.50;;;;;;;;4967607;28;28647;-85
2022/03/30 13:01:26;;;;;;;;;35.50;29.00;;;;;;;;4969968;28;28432;-89
2022/03/30 13:03:53;;;;;;;;;30.00;26.75;;;;;;;;4969871;28;28448;-87
2022/03/30 13:06:20;;;;;;;;;31.50;30.00;;;;;;;;4969213;28;29707;-87
2022/03/30 13:09:02;;;;;;;;;33.25;29.50;;;;;;;;4968602;28;27864;-87
2022/03/30 13:11:27;;;;;;;;;31.50;30.25;;;;;;;;4968847;28;28511;-87
2022/03/30 13:13:52;;;;;;;;;29.25;29.00;;;;;;;;4969037;28;28815;-86
2022/03/30 13:16:18;;;;;;;;;27.00;25.33;;;;;;;;4969058;28;28457;-86
2022/03/30 13:18:58;;;;;;;;;28.25;27.75;;;;;;;;4968759;28;28410;-88
2022/03/30 13:21:24;;;;;;;;;23.20;21.80;;;;;;;;4968794;28;28523;-87
2022/03/30 13:23:50;;;;;;;;;29.00;27.33;;;;;;;;4967167;28;28545;-88
2022/03/30 13:26:27;;;;;;;;;25.50;24.75;;;;;;;;4959177;28;28526;-88
2022/03/30 13:28:52;;;;;;;;;26.20;24.80;;;;;;;;4968604;28;28504;-87
2022/03/30 13:31:18;;;;;;;;;30.00;27.25;;;;;;;;4968192;28;28409;-86
2022/03/30 13:33:44;;;;;;;;;24.50;22.50;;;;;;;;4968621;28;28485;-85
2022/03/30 13:36:11;;;;;;;;;28.00;25.40;;;;;;;;4968913;28;28719;-87
2022/03/30 13:38:36;;;;;;;;;31.25;26.25;;;;;;;;4964992;28;28332;-88
2022/03/30 13:41:02;;;;;;;;;24.50;23.25;;;;;;;;4951480;28;28015;-88
2022/03/30 13:43:27;;;;;;;;;24.75;22.25;;;;;;;;4957073;28;28866;-93
2022/03/30 13:45:52;;;;;;;;;23.75;22.75;;;;;;;;4953413;28;28675;-88
2022/03/30 13:48:17;;;;;;;;;19.25;19.25;;;;;;;;4968164;28;28287;-88
2022/03/30 13:50:43;;;;;;;;;18.25;17.50;;;;;;;;4968393;28;28292;-87
2022/03/30 13:53:08;;;;;;;;;23.00;18.67;;;;;;;;4968945;28;28453;-88
2022/03/30 13:55:34;;;;;;;;;15.00;15.00;;;;;;;;4960833;28;28915;-88
2022/03/30 13:57:59;;;;;;;;;14.60;14.60;;;;;;;;4949124;28;28473;-84
2022/03/30 14:00:26;;;;;;;;;13.50;13.50;;;;;;;;4948560;28;28753;-88
2022/03/30 14:02:53;;;;;;;;;20.25;16.75;;;;;;;;4958617;28;28521;-87
2022/03/30 14:05:19;;;;;;;;;23.75;21.50;;;;;;;;4968343;28;29268;-87
2022/03/30 14:07:44;;;;;;;;;18.80;18.60;;;;;;;;4967307;28;28492;-87
2022/03/30 14:10:10;;;;;;;;;18.67;18.67;;;;;;;;4951012;28;28499;-87
2022/03/30 14:12:35;;;;;;;;;19.00;17.67;;;;;;;;4967945;28;28465;-88
2022/03/30 14:15:00;;;;;;;;;20.00;18.00;;;;;;;;4967879;28;29124;-88
2022/03/30 14:17:25;;;;;;;;;17.50;17.50;;;;;;;;4949868;28;29684;-85
2022/03/30 14:19:52;;;;;;;;;21.25;19.50;;;;;;;;4967910;28;28542;-88
2022/03/30 14:22:17;;;;;;;;;21.75;20.75;;;;;;;;4968512;28;28667;-88
2022/03/30 14:24:42;;;;;;;;;24.00;21.00;;;;;;;;4951126;28;28822;-86
2022/03/30 14:27:07;;;;;;;;;18.00;18.00;;;;;;;;4968177;28;28488;-90
2022/03/30 14:29:33;;;;;;;;;20.00;17.00;;;;;;;;4967966;28;29039;-90